Time;durP1;ratioP1;P1;durP2;ratioP2;P2;SDS_P1;SDS_P2;PMS_P1;PMS_P2;Temp;Humidity;BMP_temperature;BMP_pressure;BME280_temperature;BME280_humidity;BME280_pressure;Samples;Min_cycle;Max_cycle;Signal;HPM_P1;HPM_P2
2021/11/04 00:01:01;;;;;;;3.63;3.10;;;;;;;10.11;64.52;95086.94;5073073;28;20513;-68
2021/11/04 00:03:27;;;;;;;3.93;3.50;;;;;;;10.27;64.16;95083.91;5071274;28;20190;-66
2021/11/04 00:05:53;;;;;;;4.77;3.50;;;;;;;10.33;63.91;95086.75;5060433;28;20217;-67
2021/11/04 00:08:19;;;;;;;4.00;3.17;;;;;;;10.38;63.74;95094.81;5055877;28;20432;-65
2021/11/04 00:10:48;;;;;;;3.40;3.10;;;;;;;10.37;63.51;95090.53;5055785;28;20475;-67
2021/11/04 00:13:19;;;;;;;2.90;2.70;;;;;;;10.37;63.26;95077.44;5075245;28;20428;-66
2021/11/04 00:15:45;;;;;;;4.70;2.70;;;;;;;10.08;63.51;95071.66;5062427;28;20286;-66
2021/11/04 00:18:11;;;;;;;4.27;2.33;;;;;;;9.82;64.23;95068.00;5059599;28;20503;-66
2021/11/04 00:20:36;;;;;;;2.43;2.23;;;;;;;9.50;65.20;95060.72;5071235;28;20579;-65
2021/11/04 00:23:03;;;;;;;2.03;1.83;;;;;;;9.29;65.66;95060.84;5064500;28;20190;-66
2021/11/04 00:25:29;;;;;;;2.30;2.10;;;;;;;9.07;66.37;95048.69;5054488;28;20553;-65
2021/11/04 00:27:55;;;;;;;2.10;1.90;;;;;;;9.36;65.69;95059.06;5071171;28;20432;-66
2021/11/04 00:30:20;;;;;;;2.40;2.20;;;;;;;9.38;65.35;95052.63;5072304;28;20861;-66
2021/11/04 00:32:49;;;;;;;2.20;2.00;;;;;;;9.14;66.14;95040.09;5071794;28;20660;-66
2021/11/04 00:35:15;;;;;;;2.60;2.17;;;;;;;9.20;66.08;95027.03;5062035;28;20738;-65
2021/11/04 00:37:41;;;;;;;2.50;2.30;;;;;;;9.63;65.17;95025.13;5062329;28;20944;-65
2021/11/04 00:40:08;;;;;;;4.90;3.03;;;;;;;9.58;64.84;95023.09;5036673;28;20451;-66
2021/11/04 00:42:33;;;;;;;2.10;1.90;;;;;;;9.52;64.72;95039.59;5054223;28;20528;-65
2021/11/04 00:44:59;;;;;;;2.57;2.37;;;;;;;9.58;65.17;95053.69;5071374;28;20532;-65
2021/11/04 00:47:25;;;;;;;2.87;2.27;;;;;;;9.06;66.80;95067.19;5071310;28;20190;-65
2021/11/04 00:49:50;;;;;;;2.40;2.10;;;;;;;8.93;67.41;95072.38;5069730;28;20967;-65
2021/11/04 00:52:16;;;;;;;2.50;2.30;;;;;;;9.15;66.41;95070.44;5065167;28;20178;-65
2021/11/04 00:54:42;;;;;;;4.70;2.30;;;;;;;9.05;66.72;95081.25;5053327;28;20206;-66
2021/11/04 00:57:07;;;;;;;3.20;1.47;;;;;;;8.45;68.85;95095.56;5069959;28;20565;-65
2021/11/04 00:59:33;;;;;;;4.47;2.20;;;;;;;8.91;67.26;95096.06;5069178;28;20182;-66
2021/11/04 01:01:58;;;;;;;2.00;1.90;;;;;;;9.17;66.20;95099.81;5071208;28;20226;-65
2021/11/04 01:04:24;;;;;;;2.23;2.03;;;;;;;8.88;67.18;95097.25;5067391;28;20653;-65
2021/11/04 01:06:50;;;;;;;2.60;2.40;;;;;;;8.93;67.25;95099.31;5071598;28;20232;-65
2021/11/04 01:09:15;;;;;;;6.87;2.80;;;;;;;8.86;67.23;95101.06;5070781;28;20183;-66
2021/11/04 01:11:41;;;;;;;3.83;2.97;;;;;;;8.96;67.16;95098.91;5071506;28;20613;-66
2021/11/04 01:14:07;;;;;;;4.50;2.43;;;;;;;9.02;66.83;95103.38;5071009;28;20186;-66
2021/11/04 01:16:32;;;;;;;2.90;2.60;;;;;;;8.98;67.23;95090.88;5069790;28;20202;-66
2021/11/04 01:18:58;;;;;;;3.03;2.57;;;;;;;8.99;67.65;95098.50;5053025;28;20255;-66
2021/11/04 01:21:24;;;;;;;2.60;2.40;;;;;;;8.89;68.02;95098.06;5066572;28;20562;-66
2021/11/04 01:23:49;;;;;;;2.87;2.50;;;;;;;9.00;67.60;95088.88;5064855;28;20178;-66
2021/11/04 01:26:15;;;;;;;2.43;2.23;;;;;;;9.33;66.28;95088.19;5062458;28;20602;-66
2021/11/04 01:28:41;;;;;;;1.87;1.77;;;;;;;9.41;65.92;95085.41;5062110;28;20232;-67
2021/11/04 01:31:06;;;;;;;2.10;2.00;;;;;;;9.47;65.67;95086.44;5058818;28;20187;-67
2021/11/04 01:33:32;;;;;;;2.30;2.17;;;;;;;9.14;66.27;95079.28;5052997;28;20239;-64
2021/11/04 01:35:58;;;;;;;2.50;2.20;;;;;;;9.24;66.88;95071.09;5052596;28;20209;-65
2021/11/04 01:38:24;;;;;;;2.27;2.13;;;;;;;9.44;66.39;95063.31;5070124;28;20665;-64
2021/11/04 01:40:50;;;;;;;2.93;2.03;;;;;;;9.15;66.80;95062.59;5071165;28;20209;-64
2021/11/04 01:43:16;;;;;;;2.10;2.00;;;;;;;9.21;66.92;95059.19;5071769;28;20413;-65
2021/11/04 01:45:42;;;;;;;2.53;2.33;;;;;;;9.26;66.79;95058.63;5069472;28;20448;-65
2021/11/04 01:48:08;;;;;;;2.50;2.30;;;;;;;9.05;67.85;95055.13;5062572;28;20918;-65
2021/11/04 01:50:34;;;;;;;2.80;2.60;;;;;;;9.42;66.79;95055.66;5064455;28;20194;-66
2021/11/04 01:53:00;;;;;;;2.40;2.20;;;;;;;9.45;66.26;95051.84;5043858;28;20437;-65
2021/11/04 01:55:28;;;;;;;2.50;2.30;;;;;;;9.56;66.73;95053.06;5068494;28;20491;-65
2021/11/04 01:57:55;;;;;;;2.33;2.13;;;;;;;9.45;66.38;95050.03;5068788;28;20991;-65
2021/11/04 02:00:24;;;;;;;2.50;2.30;;;;;;;9.47;66.66;95044.59;5066845;28;20432;-65
2021/11/04 02:03:14;;;;;;;2.40;2.20;;;;;;;9.29;67.50;95050.38;5048763;28;20562;-65
2021/11/04 02:06:03;;;;;;;6.03;2.47;;;;;;;9.50;66.56;95063.31;5064960;28;20445;-65
2021/11/04 02:08:43;;;;;;;2.30;2.10;;;;;;;9.38;67.33;95073.53;5046110;28;20421;-65
2021/11/04 02:11:14;;;;;;;8.07;2.50;;;;;;;8.88;68.72;95076.34;5070018;28;20530;-65
2021/11/04 02:14:01;;;;;;;3.00;2.80;;;;;;;8.94;69.06;95071.38;5059749;28;20460;-64
2021/11/04 02:16:29;;;;;;;2.73;2.53;;;;;;;8.72;70.65;95082.69;5048273;28;20445;-64
2021/11/04 02:18:56;;;;;;;2.80;2.60;;;;;;;8.57;72.12;95095.06;5066099;28;20420;-65
2021/11/04 02:21:39;;;;;;;3.73;2.40;;;;;;;8.67;71.51;95089.50;5065068;28;20466;-66
2021/11/04 02:24:44;;;;;;;4.00;2.93;;;;;;;8.89;71.02;95093.63;5053671;28;20978;-65
2021/11/04 02:27:11;;;;;;;2.97;2.77;;;;;;;8.80;70.87;95094.00;5032114;28;20421;-65
2021/11/04 02:29:40;;;;;;;3.73;2.90;;;;;;;8.76;71.74;95093.56;5051284;28;20994;-65
2021/11/04 02:32:07;;;;;;;2.60;2.40;;;;;;;8.86;70.47;95099.28;5034506;28;20456;-65
2021/11/04 02:34:33;;;;;;;3.37;3.07;;;;;;;9.01;70.05;95096.53;5034891;28;20501;-66
2021/11/04 02:36:59;;;;;;;2.40;2.20;;;;;;;9.07;70.25;95100.94;5033410;28;20516;-65
2021/11/04 02:39:27;;;;;;;3.00;2.80;;;;;;;8.43;72.23;95115.03;5027510;28;20521;-65
2021/11/04 02:41:53;;;;;;;3.00;2.80;;;;;;;8.45;71.76;95113.84;5001665;28;20453;-64
2021/11/04 02:44:18;;;;;;;2.60;2.40;;;;;;;8.11;72.96;95109.38;5030211;28;21026;-64
2021/11/04 02:46:44;;;;;;;4.00;2.47;;;;;;;8.10;73.05;95116.38;5046484;28;20453;-65
2021/11/04 02:49:11;;;;;;;2.80;2.60;;;;;;;8.10;72.89;95121.59;5034325;28;20649;-67
2021/11/04 02:51:37;;;;;;;2.53;2.33;;;;;;;8.23;72.40;95126.13;5032673;28;20604;-66
2021/11/04 02:54:06;;;;;;;2.30;2.10;;;;;;;8.38;72.26;95117.41;5030928;28;20434;-63
2021/11/04 02:56:48;;;;;;;2.03;1.90;;;;;;;7.99;71.86;95120.31;5044632;28;20484;-64
2021/11/04 02:59:15;;;;;;;1.97;1.87;;;;;;;8.12;72.60;95113.59;5034746;28;20414;-64
2021/11/04 03:01:43;;;;;;;1.30;1.20;;;;;;;8.06;71.91;95122.97;5050818;28;20883;-64
2021/11/04 03:04:09;;;;;;;1.50;1.40;;;;;;;7.97;71.77;95124.09;5060741;28;20437;-64
2021/11/04 03:06:35;;;;;;;1.30;1.20;;;;;;;8.12;70.84;95124.03;5074128;28;20898;-65
2021/11/04 03:09:01;;;;;;;3.03;1.27;;;;;;;8.01;70.95;95138.38;5073101;28;20487;-66
2021/11/04 03:11:26;;;;;;;5.33;1.17;;;;;;;8.11;71.18;95127.63;5073378;28;20641;-66
2021/11/04 03:13:52;;;;;;;1.47;1.23;;;;;;;7.98;70.51;95129.13;5071829;28;20425;-65
2021/11/04 03:16:18;;;;;;;1.30;1.20;;;;;;;7.65;71.86;95139.22;5073413;28;20202;-66
2021/11/04 03:18:44;;;;;;;1.37;1.27;;;;;;;8.10;70.05;95136.44;5074813;28;20179;-66
2021/11/04 03:21:11;;;;;;;1.57;1.47;;;;;;;8.05;70.15;95131.81;5071482;28;20452;-65
2021/11/04 03:23:36;;;;;;;2.10;1.27;;;;;;;7.73;71.83;95128.69;5064317;28;20433;-65
2021/11/04 03:26:03;;;;;;;1.33;1.23;;;;;;;7.66;71.32;95135.63;5055593;28;20440;-65
2021/11/04 03:28:28;;;;;;;1.47;1.37;;;;;;;7.76;70.86;95128.31;5072707;28;20182;-66
2021/11/04 03:30:55;;;;;;;1.50;1.40;;;;;;;7.80;70.38;95123.53;5071626;28;21008;-66
2021/11/04 03:33:21;;;;;;;1.60;1.50;;;;;;;7.65;70.92;95124.38;5055331;28;20182;-65
2021/11/04 03:35:47;;;;;;;1.63;1.53;;;;;;;7.69;71.08;95119.59;5065743;28;20449;-66
2021/11/04 03:38:13;;;;;;;1.77;1.67;;;;;;;7.50;71.12;95116.63;5069826;28;20420;-66
2021/11/04 03:40:39;;;;;;;1.50;1.40;;;;;;;7.48;70.89;95115.97;5072594;28;20802;-64
2021/11/04 03:43:06;;;;;;;2.60;1.33;;;;;;;7.83;70.20;95110.91;5066703;28;20453;-66
2021/11/04 03:45:32;;;;;;;1.30;1.20;;;;;;;7.76;70.21;95110.06;5087615;28;20217;-66
2021/11/04 03:47:58;;;;;;;17.33;6.73;;;;;;;7.83;69.54;95105.69;5077294;28;20420;-65
2021/11/04 03:50:25;;;;;;;3.13;1.60;;;;;;;7.53;70.40;95111.03;5086285;28;20421;-66
2021/11/04 03:52:50;;;;;;;1.57;1.47;;;;;;;7.57;70.35;95111.47;5070447;28;20424;-65
2021/11/04 03:55:17;;;;;;;3.40;2.27;;;;;;;7.72;69.97;95100.97;5072077;28;20447;-66
2021/11/04 03:57:44;;;;;;;7.93;2.70;;;;;;;7.82;69.35;95098.88;5040860;28;20182;-65
2021/11/04 04:00:12;;;;;;;3.23;1.73;;;;;;;7.60;70.00;95105.91;5066796;28;20513;-65
2021/11/04 04:02:38;;;;;;;1.87;1.73;;;;;;;7.68;70.37;95103.16;5052613;28;20778;-66
2021/11/04 04:05:04;;;;;;;1.80;1.50;;;;;;;7.75;69.68;95108.44;5070116;28;20787;-66
2021/11/04 04:07:31;;;;;;;9.47;2.73;;;;;;;7.59;70.63;95108.66;5069689;28;20490;-66
2021/11/04 04:09:57;;;;;;;6.40;2.80;;;;;;;7.59;70.01;95109.50;5037466;28;20531;-65
2021/11/04 04:12:23;;;;;;;1.80;1.70;;;;;;;7.67;70.28;95116.41;5045248;28;20437;-65
2021/11/04 04:14:49;;;;;;;2.47;2.13;;;;;;;7.76;69.38;95107.44;5041433;28;20437;-65
2021/11/04 04:17:20;;;;;;;2.53;2.33;;;;;;;7.66;69.85;95115.56;5059840;28;20643;-65
2021/11/04 04:19:46;;;;;;;3.60;1.90;;;;;;;7.80;69.54;95124.34;5052849;28;21157;-66
2021/11/04 04:22:11;;;;;;;2.00;1.80;;;;;;;8.02;69.21;95121.72;5058956;28;20564;-64
2021/11/04 04:24:37;;;;;;;2.10;2.00;;;;;;;7.52;69.86;95127.66;5051468;28;20214;-63
2021/11/04 04:27:03;;;;;;;1.70;1.60;;;;;;;7.39;71.25;95135.34;5051701;28;20182;-65
2021/11/04 04:29:29;;;;;;;1.87;1.77;;;;;;;7.95;69.90;95142.53;5057109;28;20189;-66
2021/11/04 04:31:55;;;;;;;1.67;1.57;;;;;;;7.82;69.39;95140.59;5057647;28;20436;-65
2021/11/04 04:34:21;;;;;;;2.43;1.70;;;;;;;8.26;68.24;95151.03;5051477;28;20824;-65
2021/11/04 04:36:47;;;;;;;1.53;1.43;;;;;;;8.12;67.19;95145.69;5052076;28;20203;-64
2021/11/04 04:39:12;;;;;;;1.60;1.50;;;;;;;7.91;68.61;95159.53;5051568;28;20478;-65
2021/11/04 04:41:38;;;;;;;2.30;1.80;;;;;;;8.26;67.36;95151.03;5045873;28;20210;-65
2021/11/04 04:44:04;;;;;;;1.67;1.57;;;;;;;8.52;66.70;95150.47;5051511;28;20609;-66
2021/11/04 04:46:29;;;;;;;2.80;1.60;;;;;;;8.64;66.47;95155.97;5051971;28;20281;-66
2021/11/04 04:48:55;;;;;;;1.70;1.60;;;;;;;8.66;66.14;95154.00;5052720;28;20250;-65
2021/11/04 04:51:20;;;;;;;1.50;1.40;;;;;;;8.44;66.46;95164.41;5035248;28;20175;-64
2021/11/04 04:53:46;;;;;;;3.83;1.63;;;;;;;7.89;67.45;95158.91;5052027;28;20190;-64
2021/11/04 04:56:12;;;;;;;1.50;1.40;;;;;;;8.08;67.64;95169.75;5038364;28;20281;-66
2021/11/04 04:58:38;;;;;;;1.83;1.63;;;;;;;8.44;66.15;95163.63;5058862;28;20827;-65
2021/11/04 05:01:03;;;;;;;1.50;1.40;;;;;;;7.64;68.10;95169.69;5052965;28;20202;-65
2021/11/04 05:03:29;;;;;;;1.73;1.43;;;;;;;8.11;67.57;95172.78;5052600;28;20207;-66
2021/11/04 05:05:55;;;;;;;1.60;1.50;;;;;;;8.19;67.09;95177.06;5053815;28;20206;-67
2021/11/04 05:08:20;;;;;;;1.60;1.50;;;;;;;8.52;66.18;95175.78;5062864;28;20177;-65
2021/11/04 05:10:46;;;;;;;1.63;1.53;;;;;;;8.58;66.00;95180.22;5050689;28;20230;-66
2021/11/04 05:13:11;;;;;;;1.70;1.47;;;;;;;8.31;66.21;95177.38;5075271;28;20182;-66
2021/11/04 05:15:37;;;;;;;3.00;1.50;;;;;;;8.37;65.25;95184.44;5063387;28;20203;-66
2021/11/04 05:18:07;;;;;;;1.30;1.20;;;;;;;7.93;66.96;95177.63;5050399;28;20187;-66
2021/11/04 05:20:33;;;;;;;3.13;1.53;;;;;;;8.08;66.21;95182.78;5057185;28;20273;-65
2021/11/04 05:22:59;;;;;;;2.83;1.07;;;;;;;7.99;66.56;95182.09;5059494;28;20889;-66
2021/11/04 05:25:24;;;;;;;1.20;1.07;;;;;;;7.71;67.59;95190.63;5049859;28;20234;-65
2021/11/04 05:27:50;;;;;;;1.23;1.13;;;;;;;7.82;66.89;95182.31;5050005;28;20504;-66
2021/11/04 05:30:18;;;;;;;1.10;1.00;;;;;;;7.11;68.90;95189.91;5050330;28;20662;-65
2021/11/04 05:32:44;;;;;;;1.30;1.20;;;;;;;7.20;68.71;95194.81;5051108;28;20266;-64
2021/11/04 05:35:10;;;;;;;1.00;0.90;;;;;;;6.88;70.39;95196.81;5048675;28;20534;-64
2021/11/04 05:37:35;;;;;;;2.43;1.10;;;;;;;6.82;70.03;95207.13;5050343;28;20450;-65
2021/11/04 05:40:01;;;;;;;1.10;1.00;;;;;;;7.19;69.62;95200.22;5049297;28;20182;-65
2021/11/04 05:42:27;;;;;;;1.00;0.90;;;;;;;6.52;70.68;95207.03;5057247;28;20214;-65
2021/11/04 05:44:52;;;;;;;1.40;1.30;;;;;;;6.76;70.76;95209.44;5050632;28;20968;-65
2021/11/04 05:47:18;;;;;;;1.30;1.20;;;;;;;7.23;69.15;95207.50;5050086;28;20191;-65
2021/11/04 05:49:44;;;;;;;1.27;1.10;;;;;;;7.39;68.98;95213.50;5050848;28;20599;-65
2021/11/04 05:52:09;;;;;;;1.93;1.40;;;;;;;7.53;68.25;95214.47;5050141;28;20175;-65
2021/11/04 05:54:36;;;;;;;1.73;1.47;;;;;;;7.36;68.43;95219.09;5050137;28;20182;-65
2021/11/04 05:57:02;;;;;;;1.30;1.20;;;;;;;7.31;69.05;95229.25;5052308;28;20205;-65
2021/11/04 05:59:27;;;;;;;2.27;1.40;;;;;;;7.52;67.58;95218.06;5047760;28;20512;-64
2021/11/04 06:01:53;;;;;;;1.60;1.37;;;;;;;7.72;67.01;95231.34;5052764;28;21215;-64
2021/11/04 06:04:20;;;;;;;2.27;1.40;;;;;;;7.42;68.13;95228.78;5053963;28;20726;-65
2021/11/04 06:06:46;;;;;;;1.50;1.40;;;;;;;7.36;68.54;95230.31;5060858;28;20251;-66
2021/11/04 06:09:12;;;;;;;1.53;1.43;;;;;;;7.15;69.60;95248.44;5052426;28;20426;-66
2021/11/04 06:11:38;;;;;;;1.50;1.40;;;;;;;7.07;69.69;95252.78;5047795;28;20436;-65
2021/11/04 06:14:05;;;;;;;1.93;1.70;;;;;;;7.49;67.60;95250.53;5060782;28;20187;-64
2021/11/04 06:16:30;;;;;;;1.50;1.40;;;;;;;7.15;68.73;95257.09;5058865;28;20440;-63
2021/11/04 06:18:56;;;;;;;2.10;1.90;;;;;;;7.59;68.20;95252.03;5063684;28;20433;-64
2021/11/04 06:21:22;;;;;;;1.70;1.60;;;;;;;7.27;68.77;95261.84;5067191;28;20690;-65
2021/11/04 06:23:48;;;;;;;3.07;1.83;;;;;;;7.79;67.46;95255.72;5069467;28;20211;-67
2021/11/04 06:26:14;;;;;;;1.60;1.50;;;;;;;8.13;66.35;95266.50;5067861;28;20210;-65
2021/11/04 06:28:40;;;;;;;1.80;1.70;;;;;;;8.22;65.53;95267.22;5062149;28;20191;-66
2021/11/04 06:31:05;;;;;;;1.97;1.40;;;;;;;7.20;68.06;95270.38;5071373;28;20919;-65
2021/11/04 06:33:31;;;;;;;2.60;1.30;;;;;;;6.93;69.62;95281.41;5055982;28;20775;-67
2021/11/04 06:35:57;;;;;;;1.67;1.57;;;;;;;7.58;67.37;95273.88;5073642;28;20973;-67
2021/11/04 06:38:23;;;;;;;1.57;1.47;;;;;;;7.23;68.61;95282.25;5063773;28;20546;-66
2021/11/04 06:40:49;;;;;;;1.77;1.63;;;;;;;7.09;69.68;95289.03;5072611;28;20695;-65
2021/11/04 06:43:15;;;;;;;2.13;1.93;;;;;;;7.67;67.35;95288.47;5073565;28;20448;-66
2021/11/04 06:45:46;;;;;;;1.57;1.40;;;;;;;7.58;67.81;95290.34;5074161;28;20479;-66
2021/11/04 06:48:14;;;;;;;1.30;1.20;;;;;;;7.61;68.08;95294.38;5073525;28;20179;-66
2021/11/04 06:50:41;;;;;;;1.23;1.13;;;;;;;7.73;67.36;95287.72;5071888;28;20427;-65
2021/11/04 06:53:08;;;;;;;2.47;1.60;;;;;;;7.69;67.25;95294.28;5072136;28;20425;-67
2021/11/04 06:55:35;;;;;;;2.10;1.90;;;;;;;7.64;67.35;95305.25;5072570;28;20458;-67
2021/11/04 06:58:03;;;;;;;1.60;1.40;;;;;;;7.52;68.00;95311.91;5070607;28;20423;-66
2021/11/04 07:00:33;;;;;;;3.30;1.80;;;;;;;7.74;67.68;95309.41;5067589;28;20423;-67
2021/11/04 07:03:10;;;;;;;1.63;1.53;;;;;;;7.64;67.85;95317.50;5073788;28;20433;-67
2021/11/04 07:05:36;;;;;;;2.80;1.40;;;;;;;7.29;68.86;95322.44;5068793;28;20491;-66
2021/11/04 07:08:03;;;;;;;1.57;1.47;;;;;;;7.50;67.77;95319.91;5073090;28;21002;-67
2021/11/04 07:10:29;;;;;;;1.53;1.43;;;;;;;7.58;68.23;95326.03;5074418;28;20194;-67
2021/11/04 07:12:55;;;;;;;2.60;1.53;;;;;;;7.59;67.74;95338.06;5073820;28;20421;-66
2021/11/04 07:15:22;;;;;;;2.07;1.80;;;;;;;7.77;67.97;95335.94;5060730;28;20448;-66
2021/11/04 07:17:49;;;;;;;3.57;1.87;;;;;;;7.39;68.45;95336.00;5058844;28;20189;-66
2021/11/04 07:20:17;;;;;;;2.03;1.93;;;;;;;7.77;67.62;95343.75;5057171;28;20478;-66
2021/11/04 07:22:53;;;;;;;2.23;1.90;;;;;;;7.43;68.64;95350.31;5065425;28;20459;-66
2021/11/04 07:25:22;;;;;;;7.40;2.20;;;;;;;7.50;68.37;95351.19;5065099;28;20489;-67
2021/11/04 07:27:59;;;;;;;2.80;1.87;;;;;;;7.71;68.22;95349.69;5073068;28;20490;-67
2021/11/04 07:30:29;;;;;;;2.23;2.03;;;;;;;7.33;68.98;95360.16;5059186;28;20416;-66
2021/11/04 07:33:00;;;;;;;2.80;2.20;;;;;;;7.80;67.32;95360.81;5072497;28;20429;-66
2021/11/04 07:35:28;;;;;;;2.10;1.90;;;;;;;7.55;68.64;95368.09;5073078;28;20468;-68
2021/11/04 07:37:54;;;;;;;2.53;2.07;;;;;;;7.10;70.18;95375.84;5040458;28;20433;-69
2021/11/04 07:40:24;;;;;;;3.40;1.90;;;;;;;7.33;69.29;95381.00;5039241;28;20522;-67
2021/11/04 07:42:50;;;;;;;2.67;2.47;;;;;;;7.59;68.88;95380.59;5028740;28;20844;-65
2021/11/04 07:45:16;;;;;;;2.43;2.20;;;;;;;7.20;69.86;95379.00;5052698;28;20437;-67
2021/11/04 07:47:43;;;;;;;2.33;2.00;;;;;;;7.98;67.58;95378.72;5067090;28;20436;-67
2021/11/04 07:50:10;;;;;;;3.50;2.70;;;;;;;7.94;67.54;95388.72;5062610;28;20900;-66
2021/11/04 07:52:40;;;;;;;7.33;2.30;;;;;;;8.19;67.39;95391.03;5071450;28;20440;-66
2021/11/04 07:55:06;;;;;;;2.40;2.20;;;;;;;7.94;67.92;95388.72;5071902;28;20488;-67
2021/11/04 07:57:33;;;;;;;2.53;2.33;;;;;;;7.84;68.33;95396.81;5071737;28;20774;-66
2021/11/04 08:00:03;;;;;;;2.60;2.20;;;;;;;8.09;67.06;95401.75;5071886;28;20519;-64
2021/11/04 08:02:28;;;;;;;2.40;2.20;;;;;;;7.36;70.88;95404.94;5049186;28;21413;-67
2021/11/04 08:04:54;;;;;;;2.90;2.40;;;;;;;7.21;70.62;95409.28;5055782;28;20454;-66
2021/11/04 08:07:20;;;;;;;2.27;2.07;;;;;;;7.34;70.82;95409.50;5057634;28;20241;-66
2021/11/04 08:09:45;;;;;;;4.20;2.67;;;;;;;7.67;69.47;95411.00;5065930;28;20273;-66
2021/11/04 08:12:11;;;;;;;3.30;2.50;;;;;;;7.51;70.97;95409.34;5071334;28;20194;-66
2021/11/04 08:14:37;;;;;;;3.30;3.00;;;;;;;7.18;71.82;95414.84;5069276;28;20653;-66
2021/11/04 08:17:03;;;;;;;3.07;2.77;;;;;;;6.83;73.31;95407.41;5070710;28;20202;-66
2021/11/04 08:19:28;;;;;;;5.80;3.20;;;;;;;7.73;70.89;95415.50;5068498;28;20210;-66
2021/11/04 08:21:54;;;;;;;3.70;3.40;;;;;;;7.73;71.04;95418.09;5063691;28;20215;-67
2021/11/04 08:24:20;;;;;;;3.70;3.40;;;;;;;7.90;70.24;95423.97;5069614;28;20451;-66
2021/11/04 08:26:45;;;;;;;7.27;3.30;;;;;;;7.77;71.30;95424.59;5067105;28;20202;-66
2021/11/04 08:29:11;;;;;;;4.27;3.13;;;;;;;7.72;71.87;95429.53;5069057;28;20251;-67
2021/11/04 08:31:37;;;;;;;4.83;3.43;;;;;;;7.42;72.29;95426.03;5072158;28;20269;-67
2021/11/04 08:34:02;;;;;;;8.43;3.47;;;;;;;7.62;73.11;95437.63;5071644;28;20189;-67
2021/11/04 08:36:28;;;;;;;5.17;3.43;;;;;;;7.54;73.14;95440.28;5069933;28;20302;-66
2021/11/04 08:38:53;;;;;;;3.67;3.33;;;;;;;7.19;73.47;95438.09;5071032;28;20540;-68
2021/11/04 08:41:19;;;;;;;4.20;3.80;;;;;;;7.58;72.75;95445.94;5071078;28;20275;-67
2021/11/04 08:43:45;;;;;;;3.97;3.50;;;;;;;7.33;73.70;95441.75;5052260;28;20190;-67
2021/11/04 08:46:10;;;;;;;5.57;3.37;;;;;;;7.16;74.75;95448.06;5068781;28;20217;-66
2021/11/04 08:48:37;;;;;;;4.10;3.70;;;;;;;7.07;74.67;95444.69;5071054;28;20193;-66
2021/11/04 08:51:03;;;;;;;4.73;3.40;;;;;;;7.34;74.39;95451.19;5070327;28;20651;-67
2021/11/04 08:53:28;;;;;;;4.20;3.80;;;;;;;7.81;72.31;95449.31;5071435;28;20431;-67
2021/11/04 08:55:54;;;;;;;4.13;3.40;;;;;;;7.60;73.35;95451.78;5069595;28;20209;-67
2021/11/04 08:58:21;;;;;;;5.77;4.30;;;;;;;7.17;74.47;95463.53;5069469;28;20191;-66
2021/11/04 09:00:47;;;;;;;3.70;3.30;;;;;;;7.82;72.86;95463.97;5069112;28;20209;-66
2021/11/04 09:03:12;;;;;;;7.23;3.93;;;;;;;8.04;71.83;95461.50;5070973;28;20470;-67
2021/11/04 09:05:39;;;;;;;4.00;3.70;;;;;;;7.44;73.14;95463.16;5066571;28;20216;-68
2021/11/04 09:08:06;;;;;;;9.33;3.93;;;;;;;7.86;72.80;95472.28;5069958;28;20649;-67
2021/11/04 09:10:32;;;;;;;11.33;5.00;;;;;;;8.00;72.23;95473.28;5071666;28;20424;-67
2021/11/04 09:12:57;;;;;;;5.67;3.83;;;;;;;7.73;72.94;95472.88;5071054;28;20499;-66
2021/11/04 09:15:23;;;;;;;5.87;3.77;;;;;;;8.11;71.96;95477.25;5070196;28;20230;-66
2021/11/04 09:17:49;;;;;;;3.70;3.20;;;;;;;8.33;71.34;95475.53;5069293;28;20265;-65
2021/11/04 09:20:16;;;;;;;7.97;3.60;;;;;;;8.20;71.58;95480.56;5050848;28;20178;-66
2021/11/04 09:22:45;;;;;;;3.50;3.20;;;;;;;7.77;72.95;95487.19;5045699;28;20260;-67
2021/11/04 09:25:10;;;;;;;3.90;3.50;;;;;;;8.31;71.61;95490.56;5069337;28;21007;-68
2021/11/04 09:27:36;;;;;;;3.13;2.83;;;;;;;7.72;72.89;95497.31;5070444;28;20435;-68
2021/11/04 09:30:03;;;;;;;5.60;3.53;;;;;;;7.95;73.29;95499.88;5071249;28;20190;-67
2021/11/04 09:32:29;;;;;;;3.70;2.30;;;;;;;7.92;73.40;95504.66;5070721;28;20209;-69
2021/11/04 09:34:55;;;;;;;3.33;3.00;;;;;;;8.36;72.32;95501.28;5052645;28;20596;-69
2021/11/04 09:37:20;;;;;;;2.13;1.93;;;;;;;7.88;72.40;95509.41;5071383;28;20939;-68
2021/11/04 09:39:49;;;;;;;4.70;1.87;;;;;;;7.87;72.47;95520.03;5074007;28;20178;-67
2021/11/04 09:42:19;;;;;;;1.93;1.83;;;;;;;7.81;72.97;95524.13;5048687;28;20751;-68
2021/11/04 09:44:46;;;;;;;1.70;1.60;;;;;;;7.45;73.20;95530.75;5073448;28;20502;-67
2021/11/04 09:47:12;;;;;;;2.13;1.70;;;;;;;7.62;73.08;95535.88;5074259;28;20428;-68
2021/11/04 09:49:38;;;;;;;2.13;1.77;;;;;;;7.22;74.75;95539.38;5072277;28;20445;-69
2021/11/04 09:52:03;;;;;;;2.03;1.70;;;;;;;7.44;74.08;95549.97;5073207;28;20189;-66
2021/11/04 09:54:29;;;;;;;4.30;1.90;;;;;;;7.87;72.93;95553.94;5056984;28;20190;-66
2021/11/04 09:56:55;;;;;;;2.40;2.20;;;;;;;7.74;73.25;95544.91;5064839;28;20277;-68
2021/11/04 09:59:20;;;;;;;3.10;2.30;;;;;;;8.05;72.96;95558.81;5057085;28;20645;-65
2021/11/04 10:01:47;;;;;;;2.00;1.80;;;;;;;7.93;73.04;95564.47;5072726;28;20212;-68
2021/11/04 10:04:14;;;;;;;1.80;1.70;;;;;;;7.95;72.73;95566.88;5069665;28;20182;-67
2021/11/04 10:06:40;;;;;;;1.50;1.40;;;;;;;7.81;73.01;95577.09;5077749;28;20546;-68
2021/11/04 10:09:11;;;;;;;2.70;1.73;;;;;;;7.92;72.27;95588.13;5069556;28;20490;-67
2021/11/04 10:11:42;;;;;;;2.10;1.90;;;;;;;8.36;71.03;95586.63;5076998;28;20409;-68
2021/11/04 10:14:13;;;;;;;1.80;1.70;;;;;;;8.34;71.67;95585.97;5073370;28;20929;-67
2021/11/04 10:16:40;;;;;;;8.13;2.97;;;;;;;7.99;71.98;95589.88;5068024;28;20523;-66
2021/11/04 10:19:14;;;;;;;2.13;1.67;;;;;;;8.09;72.27;95597.44;5072391;28;20445;-65
2021/11/04 10:21:42;;;;;;;1.30;1.20;;;;;;;7.45;72.95;95580.28;5060549;28;20531;-66
2021/11/04 10:24:22;;;;;;;3.60;1.20;;;;;;;7.36;72.72;95594.34;5077966;28;21511;-67
2021/11/04 10:26:54;;;;;;;1.10;1.00;;;;;;;7.69;72.33;95594.13;5070256;28;20513;-66
2021/11/04 10:29:20;;;;;;;1.30;0.90;;;;;;;7.71;73.08;95593.97;5071198;28;20417;-67
2021/11/04 10:31:47;;;;;;;2.80;2.13;;;;;;;7.93;72.65;95600.19;5081673;28;20421;-67
2021/11/04 10:34:30;;;;;;;1.83;1.33;;;;;;;8.18;72.17;95597.38;5072780;28;20421;-66
2021/11/04 10:37:08;;;;;;;7.33;1.57;;;;;;;7.92;72.56;95609.00;5055832;28;20539;-67
2021/11/04 10:39:39;;;;;;;1.43;1.27;;;;;;;7.87;72.61;95606.09;5048910;28;20839;-68
2021/11/04 10:42:06;;;;;;;3.07;1.50;;;;;;;8.16;71.77;95618.41;5072166;28;20491;-68
2021/11/04 10:44:32;;;;;;;1.47;1.30;;;;;;;7.97;72.71;95620.53;5056390;28;20428;-67
2021/11/04 10:46:58;;;;;;;1.50;1.40;;;;;;;8.19;71.47;95622.50;5071875;28;20444;-68
2021/11/04 10:49:40;;;;;;;1.50;1.40;;;;;;;7.78;71.67;95626.19;5072464;28;20435;-67
2021/11/04 10:52:08;;;;;;;1.57;1.40;;;;;;;7.99;71.75;95620.34;5072822;28;20427;-67
2021/11/04 10:54:42;;;;;;;1.60;1.30;;;;;;;7.95;73.03;95629.50;5072006;28;20760;-68
2021/11/04 10:57:07;;;;;;;4.33;1.40;;;;;;;8.02;71.54;95633.03;5055034;28;20428;-66
2021/11/04 10:59:44;;;;;;;1.67;1.57;;;;;;;8.40;71.23;95635.66;5072893;28;20436;-68
2021/11/04 11:02:09;;;;;;;1.20;1.10;;;;;;;8.28;72.09;95634.47;5072413;28;20536;-67
2021/11/04 11:04:35;;;;;;;1.80;1.50;;;;;;;8.08;72.16;95648.00;5068805;28;20436;-67
2021/11/04 11:07:01;;;;;;;1.50;1.40;;;;;;;8.21;71.21;95650.03;5073850;28;20186;-67
2021/11/04 11:09:29;;;;;;;1.87;1.43;;;;;;;8.55;70.09;95651.38;5072237;28;20214;-67
2021/11/04 11:11:58;;;;;;;2.60;1.53;;;;;;;8.48;70.44;95660.94;5071698;28;20179;-68
2021/11/04 11:14:28;;;;;;;3.07;1.60;;;;;;;8.36;71.10;95673.56;5046881;28;20444;-68
2021/11/04 11:16:57;;;;;;;2.00;1.90;;;;;;;8.10;71.72;95668.72;5073360;28;20958;-68
2021/11/04 11:19:38;;;;;;;2.87;2.53;;;;;;;8.60;70.35;95676.97;5073300;28;20463;-67
2021/11/04 11:22:06;;;;;;;2.67;2.40;;;;;;;8.30;70.40;95675.06;5066944;28;20536;-67
2021/11/04 11:24:40;;;;;;;2.70;2.50;;;;;;;8.31;70.96;95675.91;5073924;28;20421;-66
2021/11/04 11:27:11;;;;;;;2.30;2.10;;;;;;;8.17;70.68;95684.47;5072743;28;20427;-66
2021/11/04 11:29:40;;;;;;;3.00;2.70;;;;;;;8.06;72.23;95688.28;5075107;28;20458;-67
2021/11/04 11:32:20;;;;;;;2.77;2.50;;;;;;;8.10;71.24;95690.38;5086680;28;20421;-65
2021/11/04 11:34:46;;;;;;;4.57;3.10;;;;;;;8.30;70.66;95692.53;5077373;28;20542;-66
2021/11/04 11:37:19;;;;;;;3.80;3.40;;;;;;;8.43;70.21;95694.53;5088420;28;20460;-66
2021/11/04 11:39:53;;;;;;;5.83;4.10;;;;;;;8.54;70.44;95698.56;5087966;28;20463;-66
2021/11/04 11:42:21;;;;;;;4.27;3.87;;;;;;;8.21;70.69;95697.00;5079262;28;20457;-66